Lovejoy, North Carolina
Current Conditions -  °F | °C
As of 2:15 AM on Wednesday 22 Oct 2014 (Local Time) from KVUJ Reporting Station
Clear Clear  
Wind Chill: 52°   Ceiling: Unl
Heat Index: 52°   Visibility: 10mi
Dew Point: 40°   Wind: 8mph
Humidity: 62%   Direction: 340°NNW
Pressure: 30.01"   Gusts: NA
Location:  35.4086°N, 79.9566°W
Report Text: KVUJ 220615Z AUTO 34007KT 10SM CLR 11/04 A3001 RMK AO2 T01130042
Loading
Personal Weather Stations






























Interactive Weather Map
Tropical Storm Tracking
New forecast layout! Learn more

10-Day Weather Forecast

Advertisements
Track Severe Weather on mobile